Decoded Metar for NWWW (NOUMEA in NEW CALEDONIA) (IATA:NOU) | Meteo·Mobile Aviation Weather
aviador You're here:

NWWW Decoded Metar

NOUMEA in NEW CALEDONIA
Report Time2019-04-25 21:30:00
UTC Time2019-04-25 22:05:43
Flight Rules vfr VFR
WindVRB at 04 kt
Visibility9999 m
Phenomena:N/A
Clouds:Few 039 Hf
Expected CloudBase > 2,000 ft AGL from Temp-Dew spread
CeilingNone
Temp24°C (ISA +9)
Dew Point19°C (74% RH)
QNH1014 hPa
Density Alt1,365 ft
Elevation52 ft
Report Wrong Elevation
Raw Report
NWWW 252130Z AUTO VRB04KT 9999 FEW039 24/19 Q1014 NOSIG=

Extra information for NWWW:More info

Metar Taf Metar & Taf Last 4 Metars F.Rules Stats Wind Profile Meteogram Temp Stats Airport Information Weather charts Add Link Nearby VenuesMetar ALERT Operation Metar Decoded Social comments